Terminal Aerodrome Forecast
Issued by NWS Paducah, KY

Home | Current Version | Previous Version | Text Only | Print | Product List | Glossary On
Versions: 1 2 3 4 5 6 7 8 9 10 11 12 13 14 15 16 17
000
FTUS43 KPAH 172300 RRA
TAFEVV
TAF
KEVV 172340Z 1800/1824 VRB03KT P6SM SCT040
     FM180600 00000KT 4SM BR BKN080
      TEMPO 1808/1812 2SM BR
     FM181400 06007KT P6SM SCT040=

USA.gov is the U.S. government's official web portal to all federal, state and local government web resources and services.